Terminal Aerodrome Forecast
Issued by NWS Bismarck, ND

Home | Current Version | Previous Version | Text Only | Print | Product List | Glossary On
Versions: 1 2 3 4 5 6 7 8 9 10 11 12 13 14 15 16 17 18 19 20
000
FTUS43 KBIS 301734
TAFBIS
TAF
KBIS 301734Z 3018/3118 16015KT P6SM SCT015 BKN250
     FM310100 13008KT P6SM BKN250
     FM310800 12004KT P6SM BKN100
     FM311500 11004KT P6SM SCT250=

USA.gov is the U.S. government's official web portal to all federal, state and local government web resources and services.